Flight Track Log - Related Links

Times and Time Zones

All times are in EDT time to prevent confusion due to time zone crossing. See the AAL228P flight status page for this flight to view local times or setup timezone preferences in your user account.

Time Position Orientation Groundspeed Altitude Reporting Facility
EDT Latitude Longitude Course Direction KTS MPH feet Rate Location/Type
07:11PM 39.9967 -82.8353 96° East 190 219 2,700  Level Indianapolis Center
07:11PM 39.9931 -82.7972 97° East 213 245 3,700 2,250 Climbing Indianapolis Center
07:12PM 40.0181 -82.7186 67° East 251 289 6,300 2,710 Climbing Indianapolis Center
07:13PM 40.0769 -82.7597 332° Northwest 266 306 9,300 2,468 Climbing Indianapolis Center
07:14PM 40.0872 -82.8669 277° West 292 336 11,400 2,226 Climbing Indianapolis Center
07:15PM 40.1078 -83.0189 280° West 355 409 13,900 2,758 Climbing Indianapolis Center
07:16PM 40.0000 -83.7872 270° West  Level FlightAware Approximate
07:17PM 40.1367 -83.1528 286° West 380 437 17,100  Level Indianapolis Center
07:18PM 40.1600 -83.2917 282° West 391 450 19,800 2,177 Climbing Indianapolis Center
07:19PM 40.1786 -83.4358 280° West 401 461 21,600 1,902 Climbing Indianapolis Center
07:20PM 40.1675 -83.5853 264° West 416 479 23,700 2,244 Climbing Indianapolis Center
07:21PM 40.1444 -83.7622 260° West 417 480 26,200 2,129 Climbing Indianapolis Center
07:22PM 40.1278 -83.9122 262° West 417 480 28,100 1,645 Climbing Indianapolis Center
07:23PM 40.1097 -84.0622 261° West 418 481 29,600 919 Climbing Indianapolis Center
07:24PM 40.0925 -84.2161 262° West 425 489 30,000 194 Climbing Indianapolis Center
07:25PM 40.0736 -84.3689 261° West 427 491 30,000  Level Indianapolis Center
07:26PM 40.0511 -84.5511 261° West 427 491 30,000  Level Indianapolis Center
07:27PM 40.0325 -84.7053 261° West 427 491 30,000  Level Indianapolis Center
07:28PM 39.9969 -84.8511 252° West 424 488 30,000  Level Indianapolis Center
07:29PM 39.9467 -85.0053 247° West 424 488 30,000  Level Indianapolis Center
07:30PM 39.9069 -85.1492 250° West 424 488 30,000  Level Indianapolis Center
07:31PM 39.8644 -85.2928 249° West 424 488 30,000  Level Indianapolis Center
07:32PM 39.8225 -85.4381 249° West 425 489 30,000  Level Indianapolis Center
07:33PM 39.7794 -85.5850 249° West 430 495 30,000  Level Indianapolis Center
07:34PM 39.7364 -85.7314 249° West 431 496 30,000  Level Indianapolis Center
07:35PM 39.6842 -85.9050 249° West 431 496 30,000  Level Indianapolis Center
07:36PM 39.6400 -86.0511 249° West 431 496 30,000  Level Indianapolis Center
07:37PM 39.5953 -86.2017 249° West 433 498 30,000  Level Indianapolis Center
07:38PM 39.5503 -86.3511 249° West 435 501 30,000 194 Level Indianapolis Center
07:39PM 39.5067 -86.4967 249° West 434 499 30,400 532 Climbing Indianapolis Center
07:40PM 39.4617 -86.6419 248° West 434 499 31,100 726 Climbing Indianapolis Center
07:41PM 39.4175 -86.7858 248° West 434 499 31,900 774 Climbing Indianapolis Center
07:42PM 39.3742 -86.9264 248° West 429 494 32,700 823 Climbing Indianapolis Center
07:43PM 39.3225 -87.0936 248° West 422 486 33,600 629 Climbing Indianapolis Center
07:44PM 39.2994 -87.2442 259° West 429 494 34,000 194 Climbing Indianapolis Center
07:45PM 39.2825 -87.4000 262° West 439 505 34,000  Level Indianapolis Center
07:46PM 39.2658 -87.5525 262° West 435 501 34,000  Level Indianapolis Center
07:47PM 39.2486 -87.7089 262° West 434 499 34,000  Level Indianapolis Center
07:49PM 39.2303 -87.8619 261° West 434 499 34,000  Level Indianapolis Center
07:50PM 39.2131 -88.0167 262° West 434 499 34,000  Level Indianapolis Center
07:50PM 39.1936 -88.1731 261° West 435 501 34,000  Level Kansas City Center
07:51PM 39.1758 -88.3256 261° West 434 499 34,000  Level Kansas City Center
07:53PM 39.1519 -88.4761 258° West 432 497 34,000  Level Kansas City Center
07:54PM 39.1133 -88.6233 251° West 417 480 34,000  Level Kansas City Center
07:55PM 39.0656 -88.7564 245° Southwest 412 474 34,000  Level Kansas City Center
07:56PM 39.0039 -88.8744 236° Southwest 403 464 34,000  Level Kansas City Center
07:57PM 38.9392 -89.0061 238° Southwest 403 464 34,000  Level Kansas City Center
07:58PM 38.8839 -89.1208 238° Southwest 405 466 34,000  Level Kansas City Center
07:59PM 38.8106 -89.2714 238° Southwest 409 471 34,000  Level Kansas City Center
08:00PM 38.7564 -89.3803 237° Southwest 409 471 34,000  Level Kansas City Center
08:01PM 38.6939 -89.5050 237° Southwest 410 472 34,000  Level Kansas City Center
08:02PM 38.6275 -89.6425 238° Southwest 410 472 34,000  Level Kansas City Center
08:03PM 38.5647 -89.7681 237° Southwest 410 472 34,000  Level Kansas City Center
08:04PM 38.5022 -89.8919 237° Southwest 410 472 34,000  Level Kansas City Center
08:05PM 38.4397 -90.0161 237° Southwest 410 472 34,000 197 Level Kansas City Center
08:06PM 38.3758 -90.1444 238° Southwest 418 481 34,400 634 Climbing Kansas City Center
08:07PM 38.2981 -90.2956 237° Southwest 419 482 35,300 774 Climbing Kansas City Center
08:08PM 38.2333 -90.4236 237° Southwest 421 484 36,000 339 Climbing Kansas City Center
08:09PM 38.1681 -90.5506 237° Southwest 424 488 36,000  Level Kansas City Center
08:10PM 38.1031 -90.6792 237° Southwest 425 489 36,000  Level Kansas City Center
08:11PM 38.0375 -90.8069 237° Southwest 427 491 36,000  Level Kansas City Center
08:12PM 37.9703 -90.9361 237° Southwest 427 491 36,000  Level Kansas City Center
08:13PM 37.9064 -91.0597 237° Southwest 428 493 36,000  Level Kansas City Center
08:14PM 37.8250 -91.2156 237° Southwest 428 493 36,000  Level Kansas City Center
08:15PM 37.7589 -91.3431 237° Southwest 429 494 36,000  Level Kansas City Center
08:16PM 37.6919 -91.4706 236° Southwest 429 494 36,000  Level Kansas City Center
08:17PM 37.6264 -91.5986 237° Southwest 430 495 36,000  Level Kansas City Center
08:18PM 37.5597 -91.7236 236° Southwest 430 495 36,000  Level Kansas City Center
08:19PM 37.4928 -91.8506 236° Southwest 430 495 36,000  Level Kansas City Center
08:20PM 37.4264 -91.9775 237° Southwest 430 495 36,000  Level Kansas City Center
08:21PM 37.3586 -92.1028 236° Southwest 430 495 36,000  Level Kansas City Center
08:22PM 37.2919 -92.2272 236° Southwest 430 495 36,000  Level Kansas City Center
08:23PM 37.2111 -92.3781 236° Southwest 430 495 36,000  Level Kansas City Center
08:24PM 37.1422 -92.5042 236° Southwest 432 497 36,000  Level Kansas City Center
08:26PM 37.0475 -92.5994 219° Southwest 440 506 36,000  Level Kansas City Center
08:27PM 36.9519 -92.6908 217° Southwest 436 502 36,000  Level Kansas City Center
08:28PM 36.8608 -92.7856 220° Southwest 429 494 36,000  Level Kansas City Center
08:29PM 36.7683 -92.8800 219° Southwest 428 493 36,000  Level Kansas City Center
08:30PM 36.6756 -92.9753 219° Southwest 429 494 36,000  Level Kansas City Center
08:31PM 36.5706 -93.0833 220° Southwest 430 495 36,000  Level Kansas City Center
08:32PM 36.4767 -93.1800 220° Southwest 434 499 36,000  Level Kansas City Center
08:33PM 36.3831 -93.2764 220° Southwest 435 501 36,000  Level Kansas City Center
08:34PM 36.2883 -93.3725 219° Southwest 438 504 36,000  Level Kansas City Center
08:35PM 36.1939 -93.4692 220° Southwest 442 509 36,000  Level Kansas City Center
08:36PM 36.0986 -93.5656 219° Southwest 442 509 36,000  Level Kansas City Center
08:37PM 35.9842 -93.6819 219° Southwest 442 509 36,000  Level Kansas City Center
08:38PM 35.8900 -93.7769 219° Southwest 442 509 36,000  Level Kansas City Center
08:39PM 35.7947 -93.8700 218° Southwest 442 509 36,000  Level Kansas City Center
08:40PM 35.6622 -94.0025 219° Southwest 441 507 36,000  Level Memphis Center
08:41PM 35.5658 -94.0967 218° Southwest 441 507 36,000  Level Memphis Center
08:42PM 35.4694 -94.1919 219° Southwest 444 511 36,000  Level Memphis Center
08:43PM 35.3750 -94.2853 219° Southwest 443 510 36,000  Level Memphis Center
08:44PM 35.2661 -94.4047 222° Southwest 440 506 36,000  Level Memphis Center
08:45PM 35.1744 -94.5036 221° Southwest 440 506 36,000  Level Memphis Center
08:46PM 35.0861 -94.6017 222° Southwest 435 501 36,000  Level Memphis Center
08:47PM 34.9853 -94.7075 221° Southwest 438 504 36,000  Level Memphis Center
08:49PM 34.8919 -94.8094 222° Southwest 445 512 36,000  Level Memphis Center
08:50PM 34.8050 -94.9036 222° Southwest 445 512 36,000 -244 Level Memphis Center
08:51PM 34.7053 -95.0106 221° Southwest 445 512 35,500 -716 Descending Memphis Center
08:52PM 34.6017 -95.1211 221° Southwest 448 516 34,400 -940 Descending Fort Worth Center
08:53PM 34.5075 -95.2206 221° Southwest 448 516 33,400 -1,065 Descending Fort Worth Center
08:54PM 34.3939 -95.3411 221° Southwest 452 520 32,200 -1,008 Descending Fort Worth Center
08:55PM 34.2986 -95.4422 221° Southwest 453 521 31,300 -919 Descending Fort Worth Center
08:56PM 34.2000 -95.5456 221° Southwest 460 529 30,300 -1,024 Descending Fort Worth Center
08:57PM 34.0939 -95.6569 221° Southwest 458 527 29,200 -1,016 Descending Fort Worth Center
08:58PM 33.9997 -95.7561 221° Southwest 468 539 28,200 -1,355 Descending Fort Worth Center
08:59PM 33.9000 -95.8606 221° Southwest 473 544 26,400 -1,935 Descending Fort Worth Center
09:00PM 33.8019 -95.9622 221° Southwest 470 541 24,200 -2,323 Descending Fort Worth Center
09:01PM 33.6878 -96.0786 220° Southwest 455 524 21,600 -2,274 Descending Fort Worth Center
09:02PM 33.5947 -96.1742 221° Southwest 442 509 19,500 -2,081 Descending Fort Worth Center
09:03PM 33.5014 -96.2736 222° Southwest 418 481 17,300 -1,887 Descending Fort Worth Center
09:04PM 33.4256 -96.3669 226° Southwest 394 453 15,600 -1,790 Descending Fort Worth Center
09:05PM 33.3417 -96.4689 225° Southwest 398 458 13,600 -1,756 Descending Fort Worth Center
09:06PM 33.2633 -96.5592 224° Southwest 395 455 12,000 -1,268 Descending Fort Worth Center
09:07PM 33.1822 -96.6558 225° Southwest 386 444 11,000 -484 Descending Fort Worth Center
09:08PM 33.1086 -96.7442 225° Southwest 382 440 11,000  Level Fort Worth Center
09:09PM 33.0339 -96.8308 224° Southwest 340 391 11,000  Level Fort Worth Center
09:10PM 32.9800 -96.8956 225° Southwest 275 316 11,000 -581 Level Fort Worth Center
09:11PM 32.9086 -96.9050 186° South 272 313 9,800 -1,500 Descending Fort Worth Center
09:12PM 32.8286 -96.9067 181° South 270 311 7,900 -1,756 Descending Fort Worth Center
09:13PM 32.7569 -96.9156 186° South 261 300 6,200 -1,463 Descending Fort Worth Center
09:14PM 32.7217 -96.9733 234° Southwest 219 252 4,900 -1,403 Descending Fort Worth Center
09:15PM 32.7564 -97.0106 318° Northwest 190 219 3,300 -1,403 Descending Fort Worth Center
09:17PM 32.8050 -97.0283 343° North 186 214 2,000 -1,065 Descending Fort Worth Center
09:18PM 32.8481 -97.0267 North 144 166 1,100 -732 Descending Fort Worth Center
09:19PM 32.8814 -97.0275 359° North 132 152 500 -590 Descending Fort Worth Center

Login

Don't have an account? Register now (free) for customized features, flight alerts, and more!